Time;durP1;ratioP1;P1;durP2;ratioP2;P2;SDS_P1;SDS_P2;PMS_P1;PMS_P2;Temp;Humidity;BMP_temperature;BMP_pressure;BME280_temperature;BME280_humidity;BME280_pressure;Samples;Min_cycle;Max_cycle;Signal;HPM_P1;HPM_P2
2023/10/06 00:00:47;;;;;;;2.83;1.40;;;18.80;90.30;;;;;;4974494;28;20042;-83
2023/10/06 00:03:14;;;;;;;2.65;1.75;;;18.80;90.30;;;;;;4974364;28;20054;-83
2023/10/06 00:05:49;;;;;;;3.83;1.80;;;18.70;90.30;;;;;;4974298;28;20555;-83
2023/10/06 00:08:32;;;;;;;2.85;1.50;;;18.70;90.30;;;;;;4974425;28;20031;-83
2023/10/06 00:11:10;;;;;;;3.50;1.67;;;18.70;90.30;;;;;;4974206;28;20081;-83
2023/10/06 00:13:37;;;;;;;2.30;1.40;;;18.70;90.30;;;;;;4974161;28;20097;-83
2023/10/06 00:16:07;;;;;;;3.40;1.65;;;18.70;90.40;;;;;;4975281;28;20370;-83
2023/10/06 00:18:36;;;;;;;2.72;1.58;;;18.70;90.40;;;;;;4973803;28;20110;-83
2023/10/06 00:21:15;;;;;;;4.13;1.80;;;18.70;90.40;;;;;;4975198;28;20019;-84
2023/10/06 00:23:44;;;;;;;2.53;1.40;;;18.70;90.40;;;;;;4974090;28;20034;-83
2023/10/06 00:26:12;;;;;;;3.00;1.60;;;18.70;90.40;;;;;;4973855;28;20027;-84
2023/10/06 00:28:39;;;;;;;3.50;1.60;;;18.70;90.40;;;;;;4973555;28;20030;-83
2023/10/06 00:31:08;;;;;;;2.90;1.45;;;18.70;90.40;;;;;;4975105;28;20489;-83
2023/10/06 00:33:34;;;;;;;2.78;1.52;;;18.70;90.40;;;;;;4974969;28;20023;-83
2023/10/06 00:38:42;;;;;;;2.28;1.38;;;18.70;90.40;;;;;;4975039;28;20019;-83
2023/10/06 00:41:08;;;;;;;3.70;1.65;;;18.70;90.40;;;;;;4973693;28;20405;-83
2023/10/06 00:43:36;;;;;;;3.28;1.60;;;18.70;90.40;;;;;;4973550;28;20027;-83
2023/10/06 00:46:09;;;;;;;3.95;1.63;;;18.70;90.40;;;;;;4973750;28;20030;-83
2023/10/06 00:48:40;;;;;;;3.42;1.60;;;18.80;90.50;;;;;;4973281;28;20023;-83
2023/10/06 00:51:26;;;;;;;2.70;1.52;;;18.80;90.40;;;;;;4973487;28;20085;-84
2023/10/06 00:53:56;;;;;;;4.18;1.92;;;18.70;90.30;;;;;;4973415;28;20084;-83
2023/10/06 00:56:25;;;;;;;3.85;2.08;;;18.70;90.30;;;;;;4973425;28;20027;-83
2023/10/06 00:58:51;;;;;;;4.25;2.00;;;18.70;90.40;;;;;;4974104;28;20073;-83
2023/10/06 01:01:17;;;;;;;4.22;1.90;;;18.70;90.40;;;;;;4973324;28;20065;-83
2023/10/06 01:04:11;;;;;;;3.55;1.70;;;18.70;90.30;;;;;;4973211;28;20062;-83
2023/10/06 01:06:39;;;;;;;4.03;2.05;;;18.70;90.40;;;;;;4973160;28;20027;-83
2023/10/06 01:09:14;;;;;;;4.45;2.13;;;18.70;90.40;;;;;;4972935;28;20026;-83
2023/10/06 01:11:49;;;;;;;3.28;1.90;;;18.70;90.40;;;;;;4973168;28;20046;-83
2023/10/06 01:14:26;;;;;;;3.88;1.73;;;18.70;90.40;;;;;;4973092;28;20031;-83
2023/10/06 01:16:53;;;;;;;3.25;1.70;;;18.70;90.40;;;;;;4974283;28;20374;-83
2023/10/06 01:19:28;;;;;;;4.85;1.70;;;18.70;90.50;;;;;;4972762;28;20023;-83
2023/10/06 01:21:55;;;;;;;4.30;2.20;;;18.70;90.50;;;;;;4973146;28;20073;-83
2023/10/06 01:24:28;;;;;;;5.30;2.50;;;18.70;90.40;;;;;;4974127;28;20105;-83
2023/10/06 01:27:06;;;;;;;5.25;2.15;;;18.70;90.50;;;;;;4972975;28;20115;-83
2023/10/06 01:29:33;;;;;;;3.97;2.25;;;18.70;90.50;;;;;;4974073;28;20109;-83
2023/10/06 01:32:04;;;;;;;4.93;2.05;;;18.70;90.50;;;;;;4972842;28;20093;-83
2023/10/06 01:34:39;;;;;;;4.40;2.30;;;18.70;90.50;;;;;;4972931;28;20037;-83
2023/10/06 01:37:11;;;;;;;4.47;2.45;;;18.70;90.50;;;;;;4973992;28;20038;-83
2023/10/06 01:39:38;;;;;;;4.90;2.20;;;18.70;90.50;;;;;;4972670;28;20054;-84
2023/10/06 01:42:07;;;;;;;4.65;2.22;;;18.70;90.50;;;;;;4972814;28;20374;-83
2023/10/06 01:44:36;;;;;;;4.40;2.20;;;18.70;90.50;;;;;;4972716;28;20529;-83
2023/10/06 01:47:05;;;;;;;4.72;2.10;;;18.70;90.50;;;;;;4972769;28;20035;-83
2023/10/06 01:49:33;;;;;;;4.93;2.08;;;18.60;90.50;;;;;;4972392;28;20130;-84
2023/10/06 01:52:02;;;;;;;4.75;2.40;;;18.70;90.50;;;;;;4972584;28;20122;-83
2023/10/06 01:54:34;;;;;;;4.85;2.40;;;18.70;90.40;;;;;;4972392;28;20537;-83
2023/10/06 01:57:11;;;;;;;4.00;2.20;;;18.70;90.40;;;;;;4973777;28;20493;-83
2023/10/06 01:59:37;;;;;;;4.07;2.17;;;18.70;90.40;;;;;;4972416;28;20038;-83
2023/10/06 02:02:04;;;;;;;3.75;2.08;;;18.70;90.40;;;;;;4972576;28;20019;-83
2023/10/06 02:04:42;;;;;;;3.95;2.00;;;18.70;90.40;;;;;;4973673;28;20170;-83
2023/10/06 02:07:10;;;;;;;4.45;2.03;;;18.70;90.40;;;;;;4973670;28;20023;-83
2023/10/06 02:09:37;;;;;;;4.25;2.10;;;18.70;90.40;;;;;;4973751;28;20022;-83
2023/10/06 02:12:05;;;;;;;5.00;2.08;;;18.70;90.50;;;;;;4976326;28;20031;-84
2023/10/06 02:14:31;;;;;;;4.47;2.10;;;18.60;90.50;;;;;;4976299;28;20027;-84
2023/10/06 02:16:56;;;;;;;4.25;2.10;;;18.60;90.50;;;;;;4977570;28;20022;-83
2023/10/06 02:19:22;;;;;;;4.95;2.20;;;18.70;90.50;;;;;;4975933;28;20035;-83
2023/10/06 02:21:51;;;;;;;4.28;2.05;;;18.60;90.50;;;;;;4976240;28;20026;-83
2023/10/06 02:24:17;;;;;;;3.35;1.90;;;18.60;90.50;;;;;;4976094;28;20536;-84
2023/10/06 02:26:47;;;;;;;5.13;2.22;;;18.60;90.50;;;;;;4976072;28;20026;-83
2023/10/06 02:29:26;;;;;;;3.65;1.90;;;18.60;90.50;;;;;;4977131;28;20046;-83
2023/10/06 02:32:00;;;;;;;3.65;1.98;;;18.60;90.50;;;;;;4976284;28;20037;-84
2023/10/06 02:34:29;;;;;;;3.63;1.90;;;18.60;90.50;;;;;;4977208;28;20065;-83
2023/10/06 02:37:00;;;;;;;3.63;2.00;;;18.60;90.80;;;;;;4975891;28;20026;-83
2023/10/06 02:39:33;;;;;;;4.82;2.00;;;18.60;90.60;;;;;;4976950;28;20038;-83
2023/10/06 02:42:01;;;;;;;3.97;1.92;;;18.60;90.60;;;;;;4975980;28;20117;-83
2023/10/06 02:44:29;;;;;;;4.65;2.10;;;18.60;90.50;;;;;;4975786;28;20114;-83
2023/10/06 02:46:59;;;;;;;4.07;1.73;;;18.60;90.50;;;;;;4975685;28;20090;-83
2023/10/06 02:49:31;;;;;;;4.32;2.03;;;18.70;90.60;;;;;;4975479;28;20515;-83
2023/10/06 02:52:00;;;;;;;4.18;1.88;;;18.70;90.50;;;;;;4974516;28;20033;-83
2023/10/06 02:54:29;;;;;;;4.18;1.95;;;18.70;90.50;;;;;;4956711;28;20030;-83
2023/10/06 02:56:55;;;;;;;3.67;1.75;;;18.70;90.40;;;;;;4968151;28;20531;-83
2023/10/06 02:59:22;;;;;;;4.10;1.83;;;18.70;90.40;;;;;;4975229;28;20031;-83
2023/10/06 03:02:00;;;;;;;3.45;1.92;;;18.70;90.40;;;;;;4975420;28;20026;-83
2023/10/06 03:04:27;;;;;;;3.42;1.77;;;18.70;90.40;;;;;;4975416;28;20034;-83
2023/10/06 03:06:58;;;;;;;4.90;1.90;;;18.60;90.40;;;;;;4975483;28;20489;-83
2023/10/06 03:09:43;;;;;;;4.30;2.10;;;18.70;90.50;;;;;;4975464;28;20088;-81
2023/10/06 03:14:50;;;;;;;4.15;2.03;;;18.60;90.50;;;;;;4976744;28;20031;-83
2023/10/06 03:17:19;;;;;;;3.60;1.92;;;18.60;90.50;;;;;;4975243;28;20054;-83
2023/10/06 03:19:44;;;;;;;3.00;1.70;;;18.60;90.60;;;;;;4974770;28;20023;-83
2023/10/06 03:22:12;;;;;;;3.88;2.03;;;18.60;90.50;;;;;;4975122;28;20062;-83
2023/10/06 03:24:53;;;;;;;4.47;2.03;;;18.60;90.50;;;;;;4975126;28;20026;-83
2023/10/06 03:27:18;;;;;;;4.00;2.05;;;18.60;90.60;;;;;;4974929;28;20169;-83
2023/10/06 03:30:26;;;;;;;4.32;1.92;;;18.60;90.60;;;;;;4975865;28;20496;-83
2023/10/06 03:32:32;;;;;;;4.32;1.80;;;18.60;90.60;;;;;;4973070;28;20524;-83
2023/10/06 03:38:08;;;;;;;3.63;1.80;;;18.60;90.60;;;;;;4976265;28;20252;-83
2023/10/06 03:40:42;;;;;;;3.55;1.80;;;18.60;90.60;;;;;;4976152;28;20027;-83
2023/10/06 03:43:12;;;;;;;4.15;1.92;;;18.60;90.60;;;;;;4974823;28;20054;-83
2023/10/06 03:45:40;;;;;;;3.25;1.70;;;18.60;90.60;;;;;;4974838;28;20081;-83
2023/10/06 03:48:08;;;;;;;3.50;1.70;;;18.60;90.60;;;;;;4974501;28;20042;-83
2023/10/06 03:50:42;;;;;;;3.25;1.65;;;18.60;90.60;;;;;;4974771;28;20030;-83
2023/10/06 03:53:09;;;;;;;4.22;1.98;;;18.60;90.50;;;;;;4974617;28;20023;-83
2023/10/06 03:55:45;;;;;;;4.20;1.73;;;18.60;90.40;;;;;;4975608;28;20027;-83
2023/10/06 03:58:13;;;;;;;3.45;1.92;;;18.60;90.40;;;;;;4974258;28;20481;-81
2023/10/06 04:00:40;;;;;;;3.92;1.90;;;18.70;90.40;;;;;;4974420;28;20077;-83
2023/10/06 04:03:09;;;;;;;4.60;2.13;;;18.60;90.30;;;;;;4974335;28;20393;-83
2023/10/06 04:05:37;;;;;;;3.95;1.88;;;18.60;90.40;;;;;;4974439;28;20118;-83
2023/10/06 04:08:15;;;;;;;3.60;1.70;;;18.60;90.40;;;;;;4974137;28;20023;-83
2023/10/06 04:10:42;;;;;;;4.05;1.75;;;18.60;90.50;;;;;;4974151;28;20110;-83
2023/10/06 04:13:11;;;;;;;3.15;1.67;;;18.60;90.50;;;;;;4974155;28;20019;-84
2023/10/06 04:15:38;;;;;;;3.55;1.80;;;18.60;90.50;;;;;;4974086;28;20022;-83
2023/10/06 04:18:10;;;;;;;3.47;1.70;;;18.60;90.50;;;;;;4973947;28;20026;-83
2023/10/06 04:20:38;;;;;;;3.55;1.80;;;18.60;90.60;;;;;;4974231;28;20022;-83
2023/10/06 04:23:04;;;;;;;3.58;1.70;;;18.60;90.60;;;;;;4973898;28;20049;-83
2023/10/06 04:25:31;;;;;;;3.00;1.70;;;18.60;90.60;;;;;;4974077;28;20054;-83
2023/10/06 04:27:57;;;;;;;3.55;1.70;;;18.60;90.60;;;;;;4975021;28;20055;-83
2023/10/06 04:30:25;;;;;;;3.85;1.80;;;18.60;90.60;;;;;;4975047;28;20066;-83
2023/10/06 04:32:51;;;;;;;3.47;1.98;;;18.60;90.60;;;;;;4973124;28;20398;-83
2023/10/06 04:35:21;;;;;;;3.80;1.50;;;18.50;90.50;;;;;;4973566;28;20034;-82
2023/10/06 04:37:49;;;;;;;3.40;1.70;;;18.60;90.60;;;;;;4973720;28;20447;-83
2023/10/06 04:40:20;;;;;;;2.80;1.73;;;18.60;90.60;;;;;;4970827;28;20027;-82
2023/10/06 04:42:46;;;;;;;3.40;1.67;;;18.60;90.60;;;;;;4971210;28;20023;-83
2023/10/06 04:45:14;;;;;;;3.20;1.73;;;18.60;90.60;;;;;;4969765;28;20053;-82
2023/10/06 04:47:41;;;;;;;3.47;1.63;;;18.60;90.60;;;;;;4964449;28;20032;-82
2023/10/06 04:50:09;;;;;;;3.35;1.70;;;18.60;90.60;;;;;;4965489;28;20066;-81
2023/10/06 04:52:36;;;;;;;3.05;1.65;;;18.60;90.80;;;;;;4970022;28;20080;-82
2023/10/06 04:55:04;;;;;;;2.97;1.70;;;18.60;90.50;;;;;;4969537;28;20023;-81
2023/10/06 04:57:29;;;;;;;3.40;1.65;;;18.60;90.50;;;;;;4971139;28;20094;-81
2023/10/06 04:59:55;;;;;;;2.92;1.50;;;18.60;90.50;;;;;;4969330;28;20069;-82
2023/10/06 05:02:22;;;;;;;4.25;2.00;;;18.60;90.40;;;;;;4967886;28;20027;-82
2023/10/06 05:04:48;;;;;;;3.13;1.70;;;18.60;90.40;;;;;;4970589;28;20018;-82
2023/10/06 05:07:13;;;;;;;4.55;1.90;;;18.60;90.40;;;;;;4968974;28;20401;-82
2023/10/06 05:09:40;;;;;;;2.97;1.60;;;18.60;90.50;;;;;;4970050;28;20047;-83
2023/10/06 05:12:05;;;;;;;2.85;1.50;;;18.60;90.50;;;;;;4970612;28;20069;-84
2023/10/06 05:14:34;;;;;;;3.13;1.65;;;18.50;90.50;;;;;;4970515;28;20054;-82
2023/10/06 05:16:59;;;;;;;3.45;1.65;;;18.60;90.60;;;;;;4969940;28;20030;-84
2023/10/06 05:19:26;;;;;;;2.88;1.70;;;18.50;90.60;;;;;;4970578;28;20035;-83
2023/10/06 05:21:53;;;;;;;2.50;1.50;;;18.50;90.60;;;;;;4971849;28;20022;-85
2023/10/06 05:24:19;;;;;;;3.50;1.50;;;18.60;90.60;;;;;;4971719;28;20031;-83
2023/10/06 05:26:44;;;;;;;3.50;1.65;;;18.60;90.70;;;;;;4971246;28;20037;-81
2023/10/06 05:29:14;;;;;;;3.22;1.63;;;18.50;90.60;;;;;;4971947;28;20488;-83
2023/10/06 05:31:40;;;;;;;3.45;1.77;;;18.50;90.60;;;;;;4968470;28;20034;-83
2023/10/06 05:34:07;;;;;;;3.92;1.75;;;18.50;90.60;;;;;;4966457;28;20031;-84
2023/10/06 05:36:33;;;;;;;3.45;1.52;;;18.50;90.60;;;;;;4986423;28;20042;-82
2023/10/06 05:38:59;;;;;;;2.33;1.35;;;18.50;90.70;;;;;;4970650;28;20027;-82
2023/10/06 05:41:32;;;;;;;2.55;1.45;;;18.50;90.60;;;;;;4971055;28;20023;-83
2023/10/06 05:43:58;;;;;;;2.70;1.48;;;18.50;90.70;;;;;;4970185;28;20097;-84
2023/10/06 05:46:24;;;;;;;4.47;1.80;;;18.50;90.70;;;;;;4970607;28;20027;-84
2023/10/06 05:48:51;;;;;;;2.53;1.50;;;18.50;90.70;;;;;;4969930;28;20034;-82
2023/10/06 05:51:21;;;;;;;3.63;1.80;;;18.50;90.60;;;;;;4968185;28;20031;-84
2023/10/06 05:53:48;;;;;;;5.20;1.90;;;18.60;90.60;;;;;;4969737;28;20751;-83
2023/10/06 05:56:15;;;;;;;3.60;1.77;;;18.60;90.50;;;;;;4969936;28;20089;-82
2023/10/06 05:58:43;;;;;;;4.18;1.75;;;18.60;90.40;;;;;;4969519;28;20109;-83
2023/10/06 06:01:13;;;;;;;5.60;2.17;;;18.60;90.40;;;;;;4971095;28;20027;-83
2023/10/06 06:03:44;;;;;;;4.45;1.90;;;18.60;90.40;;;;;;4970186;28;20058;-82
2023/10/06 06:06:10;;;;;;;;;;;18.60;90.40;;;;;;4970329;28;20023;-82
2023/10/06 06:08:39;;;;;;;4.40;2.00;;;18.60;90.40;;;;;;4969590;28;19916;-81
2023/10/06 06:11:05;;;;;;;4.28;1.63;;;18.60;90.40;;;;;;4970016;28;20477;-82
2023/10/06 06:13:31;;;;;;;3.75;1.98;;;18.60;90.70;;;;;;4969621;28;20031;-83
2023/10/06 06:15:57;;;;;;;4.28;1.77;;;18.60;90.50;;;;;;4969922;28;20027;-81
2023/10/06 06:18:25;;;;;;;2.97;1.55;;;18.60;90.50;;;;;;4969587;28;20781;-82
2023/10/06 06:20:50;;;;;;;3.20;1.58;;;18.60;90.50;;;;;;4969808;28;20023;-82
2023/10/06 06:23:16;;;;;;;3.38;1.75;;;18.60;90.50;;;;;;4970328;28;20030;-83
2023/10/06 06:25:44;;;;;;;3.80;1.80;;;18.60;90.40;;;;;;4971163;28;20489;-82
2023/10/06 06:28:12;;;;;;;3.13;1.55;;;18.60;90.40;;;;;;4969458;28;20453;-83
2023/10/06 06:30:39;;;;;;;3.47;1.73;;;18.60;90.40;;;;;;4970078;28;20035;-83
2023/10/06 06:33:06;;;;;;;3.15;1.70;;;18.60;90.40;;;;;;4969219;28;20027;-83
2023/10/06 06:35:32;;;;;;;3.40;1.80;;;18.60;90.40;;;;;;4970163;28;20743;-83
2023/10/06 06:38:01;;;;;;;3.72;1.63;;;18.60;90.40;;;;;;4969888;28;20027;-85
2023/10/06 06:40:31;;;;;;;4.53;2.03;;;18.60;90.40;;;;;;4970116;28;20111;-85
2023/10/06 06:42:57;;;;;;;3.85;1.88;;;18.60;90.40;;;;;;4970686;28;20138;-86
2023/10/06 06:45:28;;;;;;;2.80;1.58;;;18.60;90.40;;;;;;4972091;28;20038;-86
2023/10/06 06:47:54;;;;;;;3.90;1.77;;;18.60;90.30;;;;;;4958331;28;20111;-86
2023/10/06 06:50:20;;;;;;;4.28;1.88;;;18.60;90.10;;;;;;4950732;29;20286;-84
2023/10/06 06:52:47;;;;;;;5.05;1.90;;;18.70;90.10;;;;;;4953322;29;20027;-85
2023/10/06 06:55:13;;;;;;;5.38;1.90;;;18.70;90.00;;;;;;4951971;28;20083;-86
2023/10/06 06:58:06;;;;;;;4.20;1.90;;;18.70;89.80;;;;;;4954452;29;20071;-87
2023/10/06 07:00:35;;;;;;;5.50;1.88;;;18.80;89.70;;;;;;4967115;28;20212;-85
2023/10/06 07:03:01;;;;;;;3.60;1.80;;;18.70;89.60;;;;;;4954603;29;20027;-85
2023/10/06 07:05:26;;;;;;;3.75;1.80;;;18.80;89.70;;;;;;4954491;29;20031;-86
2023/10/06 07:07:52;;;;;;;4.70;1.90;;;18.80;89.70;;;;;;4955507;28;20513;-86
2023/10/06 07:10:22;;;;;;;4.30;1.88;;;18.80;89.70;;;;;;4970572;28;20043;-85
2023/10/06 07:13:17;;;;;;;3.78;1.80;;;18.80;89.80;;;;;;4970892;28;20027;-87
2023/10/06 07:15:43;;;;;;;3.53;1.83;;;18.80;89.70;;;;;;4954168;29;20437;-86
2023/10/06 07:18:10;;;;;;;3.50;1.65;;;18.90;89.80;;;;;;4953499;29;20031;-81
2023/10/06 07:20:35;;;;;;;4.93;1.85;;;20.00;90.20;;;;;;4953622;29;20759;-84
2023/10/06 07:50:21;;;;;;;4.00;1.60;;;19.00;90.00;;;;;;4971886;28;20058;-83
2023/10/06 07:52:47;;;;;;;3.65;1.60;;;19.00;90.00;;;;;;4971744;28;20023;-83
2023/10/06 07:55:14;;;;;;;3.25;1.60;;;19.00;90.20;;;;;;4971678;28;20041;-82
2023/10/06 07:57:45;;;;;;;3.75;1.67;;;19.00;89.80;;;;;;4971444;28;20030;-83
2023/10/06 08:00:30;;;;;;;;;;;19.10;89.70;;;;;;4971386;28;20477;-82
2023/10/06 08:02:58;;;;;;;2.88;1.38;;;19.10;89.60;;;;;;4971952;28;19916;-83
2023/10/06 08:05:24;;;;;;;3.63;1.60;;;19.10;89.70;;;;;;4971470;28;20440;-83
2023/10/06 08:07:50;;;;;;;3.65;1.50;;;19.10;89.70;;;;;;4972817;28;20031;-87
2023/10/06 08:10:18;;;;;;;3.08;1.50;;;19.10;89.70;;;;;;4972441;28;20031;-83
2023/10/06 08:12:46;;;;;;;4.30;1.40;;;19.10;89.60;;;;;;4972557;28;20030;-82
2023/10/06 08:15:17;;;;;;;4.70;1.73;;;19.10;89.60;;;;;;4974167;28;20106;-89
2023/10/06 08:17:46;;;;;;;4.63;1.67;;;19.10;89.50;;;;;;4972251;28;20029;-83
2023/10/06 08:20:12;;;;;;;5.05;1.52;;;19.10;89.50;;;;;;4972918;28;20499;-85
2023/10/06 08:22:39;;;;;;;5.18;1.58;;;19.10;89.60;;;;;;4972741;28;20117;-88
2023/10/06 08:25:14;;;;;;;3.65;1.50;;;19.00;89.30;;;;;;4973250;28;20039;-87
2023/10/06 08:27:41;;;;;;;4.25;1.60;;;19.10;89.50;;;;;;4961577;28;20576;-82
2023/10/06 08:30:17;;;;;;;3.83;1.63;;;19.10;89.50;;;;;;4973989;28;20055;-82
2023/10/06 08:32:52;;;;;;;4.07;1.42;;;19.10;89.60;;;;;;4973962;28;20034;-83
2023/10/06 08:35:17;;;;;;;3.33;1.55;;;19.10;89.60;;;;;;4974026;28;20081;-82
2023/10/06 08:37:48;;;;;;;5.03;1.70;;;19.10;89.70;;;;;;4973793;28;20027;-83
2023/10/06 08:40:19;;;;;;;4.78;1.77;;;19.10;89.70;;;;;;4973728;28;20082;-82
2023/10/06 08:42:56;;;;;;;5.05;1.58;;;19.10;89.80;;;;;;4973748;28;20046;-82
2023/10/06 08:45:24;;;;;;;3.25;1.70;;;19.10;89.90;;;;;;4973818;28;20031;-82
2023/10/06 08:47:58;;;;;;;4.43;1.50;;;19.10;89.90;;;;;;4973689;28;20030;-82
2023/10/06 08:50:27;;;;;;;4.72;1.60;;;19.10;89.90;;;;;;4973462;28;20039;-82
2023/10/06 08:52:53;;;;;;;5.10;1.50;;;19.10;89.80;;;;;;4974726;28;20054;-82
2023/10/06 08:55:20;;;;;;;4.53;1.63;;;19.10;89.80;;;;;;4973298;28;20035;-82
2023/10/06 08:57:47;;;;;;;3.95;1.50;;;19.20;89.70;;;;;;4973342;28;20027;-81
2023/10/06 09:00:15;;;;;;;3.10;1.50;;;19.20;89.70;;;;;;4973378;28;20122;-82
2023/10/06 09:02:49;;;;;;;3.47;1.40;;;19.30;89.60;;;;;;4973356;28;20468;-82
2023/10/06 09:05:15;;;;;;;3.35;1.40;;;19.20;89.40;;;;;;4973220;28;20026;-81
2023/10/06 09:07:58;;;;;;;3.67;1.55;;;19.30;89.40;;;;;;4973099;28;20564;-82
2023/10/06 09:10:23;;;;;;;2.85;1.50;;;19.30;89.30;;;;;;4973109;28;20051;-82
2023/10/06 09:12:59;;;;;;;2.70;1.40;;;19.30;89.30;;;;;;4973278;28;20034;-82
2023/10/06 09:15:25;;;;;;;2.83;1.50;;;19.40;89.30;;;;;;4973228;28;20513;-82
2023/10/06 09:17:53;;;;;;;3.75;1.73;;;19.40;89.30;;;;;;4972762;28;20030;-82
2023/10/06 09:20:29;;;;;;;3.58;1.40;;;19.40;89.30;;;;;;4974261;28;20397;-83
2023/10/06 09:22:55;;;;;;;3.15;1.58;;;19.30;89.50;;;;;;4973071;28;20030;-82
2023/10/06 09:25:21;;;;;;;2.13;1.23;;;19.30;89.50;;;;;;4973012;28;20023;-82
2023/10/06 09:27:48;;;;;;;2.53;1.42;;;19.30;89.60;;;;;;4973118;28;20500;-82
2023/10/06 09:30:20;;;;;;;2.90;1.38;;;19.30;89.70;;;;;;4972860;28;20027;-82
2023/10/06 09:32:46;;;;;;;2.65;1.38;;;19.30;89.70;;;;;;4972978;28;20038;-82
2023/10/06 09:35:21;;;;;;;4.28;1.80;;;19.30;89.70;;;;;;4972727;28;20031;-82
2023/10/06 09:37:47;;;;;;;3.80;1.50;;;19.20;89.70;;;;;;4972701;28;20114;-82
2023/10/06 09:40:22;;;;;;;3.70;1.30;;;19.20;89.60;;;;;;4972728;28;20113;-82
2023/10/06 09:42:49;;;;;;;3.70;1.40;;;19.30;89.80;;;;;;4972925;28;20019;-82
2023/10/06 09:45:21;;;;;;;3.05;1.40;;;19.30;89.70;;;;;;4972812;28;20092;-82
2023/10/06 09:47:50;;;;;;;;;;;19.30;89.60;;;;;;4974503;28;20062;-82
2023/10/06 09:50:20;;;;;;;3.97;1.40;;;19.30;89.60;;;;;;4988728;28;19953;-82
2023/10/06 09:52:47;;;;;;;2.67;1.27;;;19.30;89.60;;;;;;4972651;28;20110;-82
2023/10/06 09:55:19;;;;;;;3.10;1.52;;;19.30;89.50;;;;;;4972594;28;20085;-82
2023/10/06 09:57:47;;;;;;;2.85;1.38;;;19.40;89.50;;;;;;4973892;28;20528;-82
2023/10/06 10:00:17;;;;;;;3.63;1.40;;;19.40;89.40;;;;;;4973668;28;20102;-82
2023/10/06 10:02:47;;;;;;;3.33;1.50;;;19.40;89.50;;;;;;4973846;28;20110;-82
2023/10/06 10:05:20;;;;;;;3.63;1.40;;;19.30;89.40;;;;;;4972653;28;20031;-82
2023/10/06 10:07:48;;;;;;;3.00;1.50;;;19.30;89.40;;;;;;4973917;28;20027;-82
2023/10/06 10:10:15;;;;;;;4.60;1.42;;;19.30;89.60;;;;;;4972462;28;20122;-82
2023/10/06 10:13:23;;;;;;;2.95;1.45;;;19.30;89.80;;;;;;4973617;28;20089;-82
2023/10/06 10:16:26;;;;;;;3.65;1.50;;;19.20;89.80;;;;;;4973571;28;20082;-89
2023/10/06 10:19:03;;;;;;;2.72;1.30;;;19.20;89.90;;;;;;4973233;28;20027;-90
2023/10/06 10:21:29;;;;;;;3.30;1.50;;;19.20;90.00;;;;;;4973641;28;20552;-82
2023/10/06 10:23:56;;;;;;;2.35;1.30;;;19.20;90.00;;;;;;4973502;28;20039;-82
2023/10/06 10:26:31;;;;;;;3.25;1.42;;;19.20;90.00;;;;;;4973167;28;20495;-82
2023/10/06 10:29:12;;;;;;;3.20;1.20;;;19.20;89.90;;;;;;4969921;28;20039;-80
2023/10/06 10:31:58;;;;;;;;;;;19.20;90.00;;;;;;4974268;28;20080;-83
2023/10/06 10:34:25;;;;;;;3.92;1.50;;;19.20;89.90;;;;;;4974299;28;19914;-84
2023/10/06 10:36:53;;;;;;;3.63;1.35;;;19.20;89.90;;;;;;4975060;28;20035;-82
2023/10/06 10:39:20;;;;;;;3.88;1.35;;;19.20;89.70;;;;;;4973395;28;20578;-84
2023/10/06 10:41:46;;;;;;;3.10;1.40;;;19.30;89.70;;;;;;4973485;28;20158;-83
2023/10/06 10:44:14;;;;;;;3.38;1.40;;;19.40;89.70;;;;;;4974604;28;20152;-82
2023/10/06 10:46:40;;;;;;;3.35;1.52;;;19.30;89.70;;;;;;4973976;28;20031;-82
2023/10/06 10:49:09;;;;;;;3.75;1.33;;;19.30;89.60;;;;;;4973178;28;20058;-82
2023/10/06 10:51:55;;;;;;;3.22;1.30;;;19.30;89.60;;;;;;4974444;28;20081;-86
2023/10/06 10:54:31;;;;;;;3.13;1.60;;;19.30;89.60;;;;;;4974053;28;20042;-83
2023/10/06 10:57:05;;;;;;;3.67;1.50;;;19.30;89.60;;;;;;4974052;28;20525;-83
2023/10/06 11:02:51;;;;;;;2.72;1.20;;;19.30;89.50;;;;;;4973558;28;20031;-85
2023/10/06 11:05:19;;;;;;;3.65;1.40;;;19.40;89.40;;;;;;4965757;28;21578;-82
2023/10/06 11:08:01;;;;;;;3.72;1.40;;;19.30;89.20;;;;;;4972842;28;20027;-82
2023/10/06 11:10:27;;;;;;;2.72;1.25;;;19.40;89.30;;;;;;4972945;28;20114;-84
2023/10/06 11:13:13;;;;;;;2.65;1.23;;;19.40;89.40;;;;;;4973155;28;20031;-83
2023/10/06 11:15:39;;;;;;;3.08;1.45;;;19.30;89.40;;;;;;4973113;28;20097;-83
2023/10/06 11:18:06;;;;;;;3.78;1.45;;;19.30;90.00;;;;;;4972810;28;20023;-83
2023/10/06 11:20:36;;;;;;;3.20;1.30;;;19.30;89.60;;;;;;4973057;28;20022;-83
2023/10/06 11:23:15;;;;;;;3.00;1.20;;;19.30;89.60;;;;;;4972364;28;20027;-91
2023/10/06 11:25:51;;;;;;;2.25;1.38;;;19.30;89.60;;;;;;4971542;28;20123;-83
2023/10/06 11:28:49;;;;;;;4.35;1.40;;;19.30;89.60;;;;;;4971014;28;20039;-90
2023/10/06 11:31:16;;;;;;;2.85;1.30;;;19.40;89.50;;;;;;4971377;28;20413;-84
2023/10/06 11:33:41;;;;;;;3.30;1.50;;;19.30;89.40;;;;;;4971346;28;20203;-84
2023/10/06 11:36:07;;;;;;;4.50;1.75;;;19.40;89.40;;;;;;4972315;28;20126;-83
2023/10/06 11:38:33;;;;;;;5.03;1.90;;;19.40;89.50;;;;;;4972176;28;20027;-84
2023/10/06 11:40:59;;;;;;;3.70;1.50;;;19.40;89.30;;;;;;4971323;28;20401;-84
2023/10/06 11:43:24;;;;;;;4.47;1.63;;;19.40;89.30;;;;;;4970944;28;20022;-83
2023/10/06 11:46:02;;;;;;;2.85;1.20;;;19.40;89.10;;;;;;4971554;28;20023;-84
2023/10/06 11:48:29;;;;;;;3.83;1.40;;;19.40;89.00;;;;;;4972194;28;20026;-84
2023/10/06 11:51:12;;;;;;;2.70;1.30;;;19.50;88.90;;;;;;4970768;28;20042;-83
2023/10/06 11:53:39;;;;;;;3.83;1.30;;;19.50;88.80;;;;;;4970808;28;20081;-83
2023/10/06 11:56:05;;;;;;;3.38;1.35;;;19.50;88.80;;;;;;4972266;28;20026;-82
2023/10/06 11:58:32;;;;;;;5.00;1.60;;;19.50;88.70;;;;;;4970641;28;20026;-83
2023/10/06 12:00:58;;;;;;;2.05;1.15;;;19.50;88.80;;;;;;4970677;28;20557;-83
2023/10/06 12:03:42;;;;;;;2.88;1.45;;;19.50;88.90;;;;;;4970805;28;20066;-83
2023/10/06 12:06:23;;;;;;;3.28;1.50;;;19.50;89.00;;;;;;4971041;28;20061;-88
2023/10/06 12:34:51;;;;;;;3.50;1.50;;;19.30;89.80;;;;;;5414894;23;20141;-85
2023/10/06 12:37:17;;;;;;;3.35;1.50;;;19.30;89.90;;;;;;4963672;28;20106;-84
2023/10/06 12:39:45;;;;;;;4.65;1.40;;;19.30;89.90;;;;;;4961447;28;20173;-85
2023/10/06 12:42:11;;;;;;;4.50;1.55;;;19.20;89.90;;;;;;4969545;28;20536;-85
2023/10/06 12:44:42;;;;;;;3.10;1.33;;;19.20;89.90;;;;;;4969646;28;20127;-81
2023/10/06 12:47:10;;;;;;;3.90;1.42;;;19.20;89.80;;;;;;4971209;28;20026;-81
2023/10/06 12:49:37;;;;;;;4.75;1.50;;;19.30;89.70;;;;;;4969493;28;20497;-84
2023/10/06 12:52:03;;;;;;;3.38;1.60;;;19.40;89.70;;;;;;4971151;28;20078;-83
2023/10/06 12:54:29;;;;;;;3.50;1.33;;;19.30;89.60;;;;;;4968738;28;20805;-82
2023/10/06 12:56:55;;;;;;;3.58;1.60;;;19.30;89.60;;;;;;4969838;28;20114;-84
2023/10/06 12:59:21;;;;;;;3.85;1.35;;;19.20;89.50;;;;;;4970624;28;20101;-82
2023/10/06 13:01:50;;;;;;;4.00;1.40;;;19.30;89.60;;;;;;4970984;28;20477;-83
2023/10/06 13:04:16;;;;;;;4.13;1.20;;;19.30;89.60;;;;;;4969756;28;20030;-84
2023/10/06 13:06:41;;;;;;;5.63;1.33;;;19.30;89.80;;;;;;4970936;28;20045;-84
2023/10/06 13:09:08;;;;;;;2.58;1.10;;;19.20;89.80;;;;;;4970402;28;20073;-83
2023/10/06 13:11:35;;;;;;;3.97;1.33;;;19.20;89.90;;;;;;4969411;28;20034;-84
2023/10/06 13:14:03;;;;;;;3.45;1.50;;;19.20;90.00;;;;;;4970473;28;20516;-83
2023/10/06 13:16:30;;;;;;;2.90;1.20;;;19.20;90.20;;;;;;4969525;28;20031;-84
2023/10/06 13:18:56;;;;;;;3.28;1.45;;;19.20;90.00;;;;;;4969562;28;20124;-84
2023/10/06 13:21:21;;;;;;;3.13;1.33;;;19.20;90.00;;;;;;4969915;28;20035;-85
2023/10/06 13:23:47;;;;;;;3.13;1.42;;;19.10;90.00;;;;;;4969589;28;20400;-85
2023/10/06 13:26:13;;;;;;;3.90;1.35;;;19.10;90.00;;;;;;4969402;28;20035;-84
2023/10/06 13:28:40;;;;;;;3.38;1.40;;;19.10;90.00;;;;;;4973480;28;20035;-83
2023/10/06 13:31:07;;;;;;;2.35;1.10;;;19.10;90.00;;;;;;4973246;28;20057;-82
2023/10/06 13:33:33;;;;;;;3.03;1.38;;;19.10;90.00;;;;;;4972841;28;20023;-82
2023/10/06 13:36:00;;;;;;;3.75;1.60;;;19.10;90.00;;;;;;4972944;28;20039;-82
2023/10/06 13:38:26;;;;;;;4.30;1.58;;;19.10;90.00;;;;;;4965583;28;20490;-82
2023/10/06 13:40:52;;;;;;;3.58;1.40;;;19.10;90.00;;;;;;4953444;29;20102;-83
2023/10/06 13:43:18;;;;;;;3.45;1.45;;;19.10;90.00;;;;;;4953489;28;20027;-83
2023/10/06 13:45:45;;;;;;;3.28;1.20;;;19.10;90.00;;;;;;4953623;28;20034;-82
2023/10/06 13:48:12;;;;;;;3.20;1.20;;;19.10;89.70;;;;;;4954645;28;20109;-83
2023/10/06 13:50:40;;;;;;;3.20;1.25;;;19.10;89.60;;;;;;4953570;28;20023;-83
2023/10/06 13:53:06;;;;;;;3.15;1.65;;;19.10;89.50;;;;;;4953568;28;20086;-83
2023/10/06 13:55:32;;;;;;;2.92;1.30;;;19.20;89.60;;;;;;4953063;28;20438;-83
2023/10/06 13:58:01;;;;;;;2.33;1.17;;;19.10;89.60;;;;;;4953055;28;20036;-82
2023/10/06 14:00:32;;;;;;;3.15;1.20;;;19.10;89.60;;;;;;4953439;28;20110;-83
2023/10/06 14:03:09;;;;;;;2.47;1.38;;;19.10;89.80;;;;;;4953407;28;20020;-81
2023/10/06 14:05:38;;;;;;;3.00;1.35;;;19.10;89.90;;;;;;4956223;28;20063;-81